sensor_id;sensor_type;location;lat;lon;timestamp;P1;durP1;ratioP1;P2;durP2;ratioP2
74177;SDS011;62540;48.456;-4.456;2022-12-07T00:00:54;26.00;;;19.25;;
74177;SDS011;62540;48.456;-4.456;2022-12-07T00:03:20;14.25;;;12.50;;
74177;SDS011;62540;48.456;-4.456;2022-12-07T00:05:45;29.25;;;25.50;;
74177;SDS011;62540;48.456;-4.456;2022-12-07T00:08:11;24.00;;;20.50;;
74177;SDS011;62540;48.456;-4.456;2022-12-07T00:10:36;21.25;;;18.25;;
74177;SDS011;62540;48.456;-4.456;2022-12-07T00:13:01;20.50;;;18.00;;
74177;SDS011;62540;48.456;-4.456;2022-12-07T00:15:27;27.75;;;19.75;;
74177;SDS011;62540;48.456;-4.456;2022-12-07T00:17:52;25.75;;;18.75;;
74177;SDS011;62540;48.456;-4.456;2022-12-07T00:20:18;23.75;;;19.25;;
74177;SDS011;62540;48.456;-4.456;2022-12-07T00:22:43;23.50;;;20.50;;
74177;SDS011;62540;48.456;-4.456;2022-12-07T00:25:08;24.50;;;19.50;;
74177;SDS011;62540;48.456;-4.456;2022-12-07T00:27:34;19.00;;;19.00;;
74177;SDS011;62540;48.456;-4.456;2022-12-07T00:29:59;20.00;;;17.25;;
74177;SDS011;62540;48.456;-4.456;2022-12-07T00:32:25;27.50;;;22.50;;
74177;SDS011;62540;48.456;-4.456;2022-12-07T00:34:51;19.75;;;18.75;;
74177;SDS011;62540;48.456;-4.456;2022-12-07T00:37:16;20.50;;;19.00;;
74177;SDS011;62540;48.456;-4.456;2022-12-07T00:39:41;13.25;;;12.50;;
74177;SDS011;62540;48.456;-4.456;2022-12-07T00:42:07;21.25;;;19.00;;
74177;SDS011;62540;48.456;-4.456;2022-12-07T00:44:32;27.50;;;19.75;;
74177;SDS011;62540;48.456;-4.456;2022-12-07T00:46:58;25.00;;;19.75;;
74177;SDS011;62540;48.456;-4.456;2022-12-07T00:49:23;21.75;;;19.50;;
74177;SDS011;62540;48.456;-4.456;2022-12-07T00:51:48;22.75;;;17.00;;
74177;SDS011;62540;48.456;-4.456;2022-12-07T00:54:14;23.25;;;19.00;;
74177;SDS011;62540;48.456;-4.456;2022-12-07T00:56:40;22.25;;;20.25;;
74177;SDS011;62540;48.456;-4.456;2022-12-07T00:59:05;27.25;;;24.25;;
74177;SDS011;62540;48.456;-4.456;2022-12-07T01:01:32;16.75;;;16.25;;
74177;SDS011;62540;48.456;-4.456;2022-12-07T01:04:01;18.25;;;15.00;;
74177;SDS011;62540;48.456;-4.456;2022-12-07T01:06:27;20.75;;;18.25;;
74177;SDS011;62540;48.456;-4.456;2022-12-07T01:08:53;20.50;;;19.00;;
74177;SDS011;62540;48.456;-4.456;2022-12-07T01:11:21;20.25;;;18.50;;
74177;SDS011;62540;48.456;-4.456;2022-12-07T01:13:52;18.00;;;12.25;;
74177;SDS011;62540;48.456;-4.456;2022-12-07T01:16:18;22.00;;;19.00;;
74177;SDS011;62540;48.456;-4.456;2022-12-07T01:18:46;19.00;;;17.00;;
74177;SDS011;62540;48.456;-4.456;2022-12-07T01:21:14;13.50;;;12.75;;
74177;SDS011;62540;48.456;-4.456;2022-12-07T01:23:41;22.50;;;15.50;;
74177;SDS011;62540;48.456;-4.456;2022-12-07T01:26:10;20.00;;;15.50;;
74177;SDS011;62540;48.456;-4.456;2022-12-07T01:28:37;21.50;;;14.75;;
74177;SDS011;62540;48.456;-4.456;2022-12-07T01:33:29;17.00;;;14.75;;
74177;SDS011;62540;48.456;-4.456;2022-12-07T01:36:03;18.25;;;13.75;;
74177;SDS011;62540;48.456;-4.456;2022-12-07T01:38:30;14.75;;;13.75;;
74177;SDS011;62540;48.456;-4.456;2022-12-07T01:40:56;15.50;;;13.00;;
74177;SDS011;62540;48.456;-4.456;2022-12-07T01:43:23;14.50;;;12.25;;
74177;SDS011;62540;48.456;-4.456;2022-12-07T01:45:51;19.25;;;14.25;;
74177;SDS011;62540;48.456;-4.456;2022-12-07T01:48:17;12.50;;;12.00;;
74177;SDS011;62540;48.456;-4.456;2022-12-07T01:50:48;15.00;;;10.00;;
74177;SDS011;62540;48.456;-4.456;2022-12-07T01:53:15;11.50;;;10.50;;
74177;SDS011;62540;48.456;-4.456;2022-12-07T01:55:43;12.50;;;9.50;;
74177;SDS011;62540;48.456;-4.456;2022-12-07T01:58:10;13.00;;;11.50;;
74177;SDS011;62540;48.456;-4.456;2022-12-07T02:00:37;10.25;;;8.00;;
74177;SDS011;62540;48.456;-4.456;2022-12-07T02:03:11;11.00;;;7.50;;
74177;SDS011;62540;48.456;-4.456;2022-12-07T02:05:41;9.00;;;9.00;;
74177;SDS011;62540;48.456;-4.456;2022-12-07T02:08:08;9.50;;;8.50;;
74177;SDS011;62540;48.456;-4.456;2022-12-07T02:10:35;6.50;;;6.50;;
74177;SDS011;62540;48.456;-4.456;2022-12-07T02:13:05;10.75;;;8.25;;
74177;SDS011;62540;48.456;-4.456;2022-12-07T02:18:33;8.50;;;8.00;;
74177;SDS011;62540;48.456;-4.456;2022-12-07T02:21:21;9.00;;;7.75;;
74177;SDS011;62540;48.456;-4.456;2022-12-07T02:27:40;9.25;;;8.00;;
74177;SDS011;62540;48.456;-4.456;2022-12-07T02:30:00;6.00;;;4.00;;
74177;SDS011;62540;48.456;-4.456;2022-12-07T02:35:11;8.00;;;7.00;;
74177;SDS011;62540;48.456;-4.456;2022-12-07T02:37:44;8.50;;;8.00;;
74177;SDS011;62540;48.456;-4.456;2022-12-07T02:40:36;11.50;;;9.00;;
74177;SDS011;62540;48.456;-4.456;2022-12-07T02:43:48;10.25;;;8.00;;
74177;SDS011;62540;48.456;-4.456;2022-12-07T02:45:58;9.25;;;9.00;;
74177;SDS011;62540;48.456;-4.456;2022-12-07T02:48:29;8.50;;;8.25;;
74177;SDS011;62540;48.456;-4.456;2022-12-07T02:50:58;6.00;;;5.50;;
74177;SDS011;62540;48.456;-4.456;2022-12-07T02:53:33;7.25;;;7.25;;
74177;SDS011;62540;48.456;-4.456;2022-12-07T02:56:13;9.00;;;7.75;;
74177;SDS011;62540;48.456;-4.456;2022-12-07T03:01:59;9.00;;;7.00;;
74177;SDS011;62540;48.456;-4.456;2022-12-07T03:12:31;7.00;;;6.75;;
74177;SDS011;62540;48.456;-4.456;2022-12-07T03:15:12;9.25;;;7.25;;
74177;SDS011;62540;48.456;-4.456;2022-12-07T03:17:46;8.00;;;7.00;;
74177;SDS011;62540;48.456;-4.456;2022-12-07T03:20:16;9.25;;;7.25;;
74177;SDS011;62540;48.456;-4.456;2022-12-07T03:22:46;11.50;;;8.00;;
74177;SDS011;62540;48.456;-4.456;2022-12-07T03:25:13;9.25;;;7.75;;
74177;SDS011;62540;48.456;-4.456;2022-12-07T03:28:01;10.25;;;9.50;;
74177;SDS011;62540;48.456;-4.456;2022-12-07T03:30:31;14.00;;;10.00;;
74177;SDS011;62540;48.456;-4.456;2022-12-07T03:33:12;13.00;;;10.25;;
74177;SDS011;62540;48.456;-4.456;2022-12-07T03:35:45;8.75;;;7.50;;
74177;SDS011;62540;48.456;-4.456;2022-12-07T03:38:23;11.75;;;10.50;;
74177;SDS011;62540;48.456;-4.456;2022-12-07T03:43:39;13.50;;;12.00;;
74177;SDS011;62540;48.456;-4.456;2022-12-07T03:49:04;16.75;;;14.25;;
74177;SDS011;62540;48.456;-4.456;2022-12-07T03:51:38;20.75;;;16.25;;
74177;SDS011;62540;48.456;-4.456;2022-12-07T03:54:16;16.75;;;14.75;;
74177;SDS011;62540;48.456;-4.456;2022-12-07T03:56:46;16.25;;;13.50;;
74177;SDS011;62540;48.456;-4.456;2022-12-07T03:59:13;15.75;;;14.25;;
74177;SDS011;62540;48.456;-4.456;2022-12-07T04:01:44;17.00;;;16.00;;
74177;SDS011;62540;48.456;-4.456;2022-12-07T04:04:16;16.50;;;13.50;;
74177;SDS011;62540;48.456;-4.456;2022-12-07T04:06:42;17.25;;;15.75;;
74177;SDS011;62540;48.456;-4.456;2022-12-07T04:09:07;13.00;;;12.25;;
74177;SDS011;62540;48.456;-4.456;2022-12-07T04:11:32;21.75;;;18.25;;
74177;SDS011;62540;48.456;-4.456;2022-12-07T04:13:58;23.00;;;19.75;;
74177;SDS011;62540;48.456;-4.456;2022-12-07T04:16:42;18.75;;;15.25;;
74177;SDS011;62540;48.456;-4.456;2022-12-07T04:19:07;20.75;;;18.50;;
74177;SDS011;62540;48.456;-4.456;2022-12-07T04:21:32;22.75;;;20.50;;
74177;SDS011;62540;48.456;-4.456;2022-12-07T04:23:58;24.75;;;23.00;;
74177;SDS011;62540;48.456;-4.456;2022-12-07T04:26:23;19.50;;;14.50;;
74177;SDS011;62540;48.456;-4.456;2022-12-07T04:28:49;24.00;;;18.25;;
74177;SDS011;62540;48.456;-4.456;2022-12-07T04:31:14;17.00;;;13.25;;
74177;SDS011;62540;48.456;-4.456;2022-12-07T04:33:39;17.75;;;15.25;;
74177;SDS011;62540;48.456;-4.456;2022-12-07T04:36:05;24.25;;;16.75;;
74177;SDS011;62540;48.456;-4.456;2022-12-07T04:38:30;20.00;;;17.25;;
74177;SDS011;62540;48.456;-4.456;2022-12-07T04:40:56;15.50;;;15.00;;
74177;SDS011;62540;48.456;-4.456;2022-12-07T04:43:21;17.25;;;15.00;;
74177;SDS011;62540;48.456;-4.456;2022-12-07T04:45:47;20.00;;;16.50;;
74177;SDS011;62540;48.456;-4.456;2022-12-07T04:48:13;17.25;;;14.75;;
74177;SDS011;62540;48.456;-4.456;2022-12-07T04:50:38;15.25;;;12.25;;
74177;SDS011;62540;48.456;-4.456;2022-12-07T04:53:04;17.00;;;14.50;;
74177;SDS011;62540;48.456;-4.456;2022-12-07T04:55:29;10.25;;;8.75;;
74177;SDS011;62540;48.456;-4.456;2022-12-07T04:57:55;15.50;;;12.50;;
74177;SDS011;62540;48.456;-4.456;2022-12-07T05:00:20;13.00;;;12.50;;
74177;SDS011;62540;48.456;-4.456;2022-12-07T05:02:45;11.75;;;11.00;;
74177;SDS011;62540;48.456;-4.456;2022-12-07T05:05:11;18.25;;;13.25;;
74177;SDS011;62540;48.456;-4.456;2022-12-07T05:07:36;16.25;;;15.25;;
74177;SDS011;62540;48.456;-4.456;2022-12-07T05:10:02;15.25;;;13.50;;
74177;SDS011;62540;48.456;-4.456;2022-12-07T05:12:28;19.25;;;15.00;;
74177;SDS011;62540;48.456;-4.456;2022-12-07T05:14:53;17.50;;;13.50;;
74177;SDS011;62540;48.456;-4.456;2022-12-07T05:17:20;17.00;;;15.00;;
74177;SDS011;62540;48.456;-4.456;2022-12-07T05:19:45;15.25;;;13.00;;
74177;SDS011;62540;48.456;-4.456;2022-12-07T05:22:11;14.75;;;13.00;;
74177;SDS011;62540;48.456;-4.456;2022-12-07T05:24:38;12.75;;;10.50;;
74177;SDS011;62540;48.456;-4.456;2022-12-07T05:27:03;18.75;;;14.00;;
74177;SDS011;62540;48.456;-4.456;2022-12-07T05:29:29;15.50;;;14.75;;
74177;SDS011;62540;48.456;-4.456;2022-12-07T05:31:54;15.75;;;13.00;;
74177;SDS011;62540;48.456;-4.456;2022-12-07T05:34:20;13.75;;;11.50;;
74177;SDS011;62540;48.456;-4.456;2022-12-07T05:36:45;13.50;;;10.25;;
74177;SDS011;62540;48.456;-4.456;2022-12-07T05:39:11;14.50;;;12.25;;
74177;SDS011;62540;48.456;-4.456;2022-12-07T05:41:36;15.50;;;12.75;;
74177;SDS011;62540;48.456;-4.456;2022-12-07T05:44:20;15.25;;;12.25;;
74177;SDS011;62540;48.456;-4.456;2022-12-07T05:46:45;13.75;;;11.75;;
74177;SDS011;62540;48.456;-4.456;2022-12-07T05:49:11;11.50;;;11.00;;
74177;SDS011;62540;48.456;-4.456;2022-12-07T05:51:36;9.75;;;8.50;;
74177;SDS011;62540;48.456;-4.456;2022-12-07T05:54:02;13.75;;;11.25;;
74177;SDS011;62540;48.456;-4.456;2022-12-07T05:56:27;15.25;;;13.50;;
74177;SDS011;62540;48.456;-4.456;2022-12-07T05:58:53;16.00;;;12.50;;
74177;SDS011;62540;48.456;-4.456;2022-12-07T06:01:37;14.75;;;13.50;;
74177;SDS011;62540;48.456;-4.456;2022-12-07T06:04:03;20.25;;;15.00;;
74177;SDS011;62540;48.456;-4.456;2022-12-07T06:06:28;11.25;;;10.00;;
74177;SDS011;62540;48.456;-4.456;2022-12-07T06:08:54;15.75;;;12.00;;
74177;SDS011;62540;48.456;-4.456;2022-12-07T06:11:19;14.75;;;13.75;;
74177;SDS011;62540;48.456;-4.456;2022-12-07T06:14:03;12.00;;;10.00;;
74177;SDS011;62540;48.456;-4.456;2022-12-07T06:16:29;16.25;;;11.25;;
74177;SDS011;62540;48.456;-4.456;2022-12-07T06:18:54;14.00;;;13.00;;
74177;SDS011;62540;48.456;-4.456;2022-12-07T06:21:20;13.75;;;12.75;;
74177;SDS011;62540;48.456;-4.456;2022-12-07T06:23:45;15.25;;;12.00;;
74177;SDS011;62540;48.456;-4.456;2022-12-07T06:26:10;10.50;;;7.25;;
74177;SDS011;62540;48.456;-4.456;2022-12-07T06:28:36;7.25;;;5.75;;
74177;SDS011;62540;48.456;-4.456;2022-12-07T06:31:01;9.75;;;9.00;;
74177;SDS011;62540;48.456;-4.456;2022-12-07T06:33:27;9.00;;;7.75;;
74177;SDS011;62540;48.456;-4.456;2022-12-07T06:35:54;12.00;;;9.75;;
74177;SDS011;62540;48.456;-4.456;2022-12-07T06:38:19;11.75;;;10.00;;
74177;SDS011;62540;48.456;-4.456;2022-12-07T06:40:45;12.00;;;9.50;;
74177;SDS011;62540;48.456;-4.456;2022-12-07T06:43:10;14.50;;;11.75;;
74177;SDS011;62540;48.456;-4.456;2022-12-07T06:45:35;13.25;;;10.50;;
74177;SDS011;62540;48.456;-4.456;2022-12-07T06:48:01;10.25;;;10.25;;
74177;SDS011;62540;48.456;-4.456;2022-12-07T06:50:26;10.25;;;7.75;;
74177;SDS011;62540;48.456;-4.456;2022-12-07T06:52:52;13.25;;;10.00;;
74177;SDS011;62540;48.456;-4.456;2022-12-07T06:55:17;10.25;;;9.25;;
74177;SDS011;62540;48.456;-4.456;2022-12-07T06:57:43;9.00;;;9.00;;
74177;SDS011;62540;48.456;-4.456;2022-12-07T07:00:09;12.75;;;10.75;;
74177;SDS011;62540;48.456;-4.456;2022-12-07T07:02:35;14.25;;;12.00;;
74177;SDS011;62540;48.456;-4.456;2022-12-07T07:05:00;14.00;;;10.25;;
74177;SDS011;62540;48.456;-4.456;2022-12-07T07:07:26;10.50;;;10.00;;
74177;SDS011;62540;48.456;-4.456;2022-12-07T07:09:51;11.00;;;10.25;;
74177;SDS011;62540;48.456;-4.456;2022-12-07T07:12:17;10.00;;;9.00;;
74177;SDS011;62540;48.456;-4.456;2022-12-07T07:14:42;10.75;;;10.00;;
74177;SDS011;62540;48.456;-4.456;2022-12-07T07:17:08;14.00;;;10.00;;
74177;SDS011;62540;48.456;-4.456;2022-12-07T07:19:33;9.50;;;9.25;;
74177;SDS011;62540;48.456;-4.456;2022-12-07T07:21:59;10.00;;;9.50;;
74177;SDS011;62540;48.456;-4.456;2022-12-07T07:24:24;6.75;;;5.75;;
74177;SDS011;62540;48.456;-4.456;2022-12-07T07:26:50;10.25;;;10.00;;
74177;SDS011;62540;48.456;-4.456;2022-12-07T07:29:15;9.75;;;9.00;;
74177;SDS011;62540;48.456;-4.456;2022-12-07T07:31:41;14.75;;;11.75;;
74177;SDS011;62540;48.456;-4.456;2022-12-07T07:34:06;14.50;;;13.50;;
74177;SDS011;62540;48.456;-4.456;2022-12-07T07:36:32;5.25;;;4.25;;
74177;SDS011;62540;48.456;-4.456;2022-12-07T07:38:57;16.00;;;11.25;;
74177;SDS011;62540;48.456;-4.456;2022-12-07T07:41:23;11.75;;;10.75;;
74177;SDS011;62540;48.456;-4.456;2022-12-07T07:43:48;15.75;;;14.25;;
74177;SDS011;62540;48.456;-4.456;2022-12-07T07:46:13;25.50;;;16.00;;
74177;SDS011;62540;48.456;-4.456;2022-12-07T07:48:39;19.00;;;15.00;;
74177;SDS011;62540;48.456;-4.456;2022-12-07T07:51:05;18.00;;;16.00;;
74177;SDS011;62540;48.456;-4.456;2022-12-07T07:53:32;10.50;;;10.50;;
74177;SDS011;62540;48.456;-4.456;2022-12-07T07:55:57;14.25;;;10.75;;
74177;SDS011;62540;48.456;-4.456;2022-12-07T07:58:23;19.50;;;16.00;;
74177;SDS011;62540;48.456;-4.456;2022-12-07T08:00:49;16.00;;;13.50;;
74177;SDS011;62540;48.456;-4.456;2022-12-07T08:03:14;18.75;;;16.25;;
74177;SDS011;62540;48.456;-4.456;2022-12-07T08:05:40;16.50;;;15.25;;
74177;SDS011;62540;48.456;-4.456;2022-12-07T08:08:06;18.00;;;15.25;;
74177;SDS011;62540;48.456;-4.456;2022-12-07T08:10:31;18.75;;;17.25;;
74177;SDS011;62540;48.456;-4.456;2022-12-07T08:12:57;16.75;;;14.75;;
74177;SDS011;62540;48.456;-4.456;2022-12-07T08:15:42;22.50;;;14.00;;
74177;SDS011;62540;48.456;-4.456;2022-12-07T08:18:09;18.50;;;16.00;;
74177;SDS011;62540;48.456;-4.456;2022-12-07T08:20:35;16.25;;;15.25;;
74177;SDS011;62540;48.456;-4.456;2022-12-07T08:23:02;19.50;;;16.75;;
74177;SDS011;62540;48.456;-4.456;2022-12-07T08:25:28;17.75;;;17.50;;
74177;SDS011;62540;48.456;-4.456;2022-12-07T08:27:54;17.75;;;16.00;;
74177;SDS011;62540;48.456;-4.456;2022-12-07T08:30:19;10.25;;;9.00;;
74177;SDS011;62540;48.456;-4.456;2022-12-07T08:32:46;17.50;;;14.75;;
74177;SDS011;62540;48.456;-4.456;2022-12-07T08:35:12;17.50;;;16.50;;
74177;SDS011;62540;48.456;-4.456;2022-12-07T08:37:38;15.75;;;15.75;;
74177;SDS011;62540;48.456;-4.456;2022-12-07T08:40:04;16.00;;;16.00;;
74177;SDS011;62540;48.456;-4.456;2022-12-07T08:42:31;16.25;;;15.75;;
74177;SDS011;62540;48.456;-4.456;2022-12-07T08:45:03;19.25;;;16.00;;
74177;SDS011;62540;48.456;-4.456;2022-12-07T08:47:34;18.25;;;16.50;;
74177;SDS011;62540;48.456;-4.456;2022-12-07T08:50:02;19.25;;;16.50;;
74177;SDS011;62540;48.456;-4.456;2022-12-07T08:52:30;19.50;;;16.00;;
74177;SDS011;62540;48.456;-4.456;2022-12-07T08:54:56;24.00;;;16.75;;
74177;SDS011;62540;48.456;-4.456;2022-12-07T08:57:22;22.00;;;16.00;;
74177;SDS011;62540;48.456;-4.456;2022-12-07T08:59:47;27.00;;;22.75;;
74177;SDS011;62540;48.456;-4.456;2022-12-07T09:02:13;39.50;;;30.75;;
74177;SDS011;62540;48.456;-4.456;2022-12-07T09:04:38;25.25;;;21.75;;
74177;SDS011;62540;48.456;-4.456;2022-12-07T09:07:04;18.00;;;11.75;;
74177;SDS011;62540;48.456;-4.456;2022-12-07T09:09:29;22.50;;;19.75;;
74177;SDS011;62540;48.456;-4.456;2022-12-07T09:11:55;24.25;;;18.25;;
74177;SDS011;62540;48.456;-4.456;2022-12-07T09:14:20;24.50;;;18.25;;
74177;SDS011;62540;48.456;-4.456;2022-12-07T09:16:46;17.25;;;15.75;;
74177;SDS011;62540;48.456;-4.456;2022-12-07T09:19:11;18.25;;;16.00;;
74177;SDS011;62540;48.456;-4.456;2022-12-07T09:21:37;22.25;;;16.00;;
74177;SDS011;62540;48.456;-4.456;2022-12-07T09:24:02;18.75;;;15.50;;
74177;SDS011;62540;48.456;-4.456;2022-12-07T09:26:28;17.75;;;16.00;;
74177;SDS011;62540;48.456;-4.456;2022-12-07T09:28:53;19.00;;;16.75;;
74177;SDS011;62540;48.456;-4.456;2022-12-07T09:31:18;23.50;;;16.00;;
74177;SDS011;62540;48.456;-4.456;2022-12-07T09:33:44;16.75;;;14.25;;
74177;SDS011;62540;48.456;-4.456;2022-12-07T09:36:09;15.00;;;12.50;;
74177;SDS011;62540;48.456;-4.456;2022-12-07T09:38:35;16.75;;;13.50;;
74177;SDS011;62540;48.456;-4.456;2022-12-07T09:41:06;16.25;;;11.75;;
74177;SDS011;62540;48.456;-4.456;2022-12-07T09:43:33;19.50;;;16.25;;
74177;SDS011;62540;48.456;-4.456;2022-12-07T09:46:00;19.50;;;16.00;;
74177;SDS011;62540;48.456;-4.456;2022-12-07T09:48:30;15.25;;;14.00;;
74177;SDS011;62540;48.456;-4.456;2022-12-07T09:50:58;17.25;;;15.00;;
74177;SDS011;62540;48.456;-4.456;2022-12-07T09:53:26;12.00;;;11.25;;
74177;SDS011;62540;48.456;-4.456;2022-12-07T09:55:55;18.50;;;15.25;;
74177;SDS011;62540;48.456;-4.456;2022-12-07T09:58:22;17.75;;;15.75;;
74177;SDS011;62540;48.456;-4.456;2022-12-07T10:00:56;15.75;;;12.00;;
74177;SDS011;62540;48.456;-4.456;2022-12-07T10:03:30;19.00;;;13.75;;
74177;SDS011;62540;48.456;-4.456;2022-12-07T10:05:56;17.00;;;13.25;;
74177;SDS011;62540;48.456;-4.456;2022-12-07T10:08:22;17.50;;;13.25;;
74177;SDS011;62540;48.456;-4.456;2022-12-07T10:10:52;19.75;;;18.25;;
74177;SDS011;62540;48.456;-4.456;2022-12-07T10:13:42;17.50;;;12.50;;
74177;SDS011;62540;48.456;-4.456;2022-12-07T10:18:49;15.00;;;13.75;;
74177;SDS011;62540;48.456;-4.456;2022-12-07T10:21:23;15.00;;;14.00;;
74177;SDS011;62540;48.456;-4.456;2022-12-07T10:26:54;15.25;;;14.50;;
74177;SDS011;62540;48.456;-4.456;2022-12-07T10:29:22;18.25;;;15.75;;
74177;SDS011;62540;48.456;-4.456;2022-12-07T10:34:38;25.25;;;20.25;;
74177;SDS011;62540;48.456;-4.456;2022-12-07T10:37:15;21.50;;;18.75;;
74177;SDS011;62540;48.456;-4.456;2022-12-07T10:39:45;16.75;;;16.00;;
74177;SDS011;62540;48.456;-4.456;2022-12-07T10:42:16;18.25;;;15.50;;
74177;SDS011;62540;48.456;-4.456;2022-12-07T10:44:42;21.50;;;18.75;;
74177;SDS011;62540;48.456;-4.456;2022-12-07T10:50:14;14.00;;;11.75;;
74177;SDS011;62540;48.456;-4.456;2022-12-07T10:55:14;21.50;;;20.25;;
74177;SDS011;62540;48.456;-4.456;2022-12-07T11:00:24;16.00;;;12.00;;
74177;SDS011;62540;48.456;-4.456;2022-12-07T11:05:17;24.50;;;22.50;;
74177;SDS011;62540;48.456;-4.456;2022-12-07T11:07:47;19.50;;;19.50;;
74177;SDS011;62540;48.456;-4.456;2022-12-07T11:29:43;15.25;;;15.00;;
74177;SDS011;62540;48.456;-4.456;2022-12-07T11:37:55;14.50;;;14.00;;
74177;SDS011;62540;48.456;-4.456;2022-12-07T11:45:27;14.00;;;12.00;;
74177;SDS011;62540;48.456;-4.456;2022-12-07T11:48:03;10.25;;;9.00;;
74177;SDS011;62540;48.456;-4.456;2022-12-07T11:53:26;16.25;;;14.50;;
74177;SDS011;62540;48.456;-4.456;2022-12-07T11:55:57;15.25;;;13.25;;
74177;SDS011;62540;48.456;-4.456;2022-12-07T12:04:07;15.50;;;14.50;;
74177;SDS011;62540;48.456;-4.456;2022-12-07T12:06:37;9.75;;;7.50;;
74177;SDS011;62540;48.456;-4.456;2022-12-07T12:25:24;18.00;;;13.00;;
74177;SDS011;62540;48.456;-4.456;2022-12-07T12:27:53;12.50;;;10.75;;
74177;SDS011;62540;48.456;-4.456;2022-12-07T13:02:07;17.25;;;16.25;;
74177;SDS011;62540;48.456;-4.456;2022-12-07T13:15:39;16.00;;;15.75;;
74177;SDS011;62540;48.456;-4.456;2022-12-07T13:23:20;17.00;;;15.75;;
74177;SDS011;62540;48.456;-4.456;2022-12-07T13:28:44;24.00;;;19.00;;
74177;SDS011;62540;48.456;-4.456;2022-12-07T13:31:19;20.25;;;17.25;;
74177;SDS011;62540;48.456;-4.456;2022-12-07T13:33:59;20.00;;;19.00;;
74177;SDS011;62540;48.456;-4.456;2022-12-07T13:36:26;15.25;;;13.00;;
74177;SDS011;62540;48.456;-4.456;2022-12-07T13:38:57;18.25;;;14.00;;
74177;SDS011;62540;48.456;-4.456;2022-12-07T13:41:28;19.00;;;15.50;;
74177;SDS011;62540;48.456;-4.456;2022-12-07T13:44:02;10.25;;;10.00;;
74177;SDS011;62540;48.456;-4.456;2022-12-07T13:46:31;10.00;;;10.00;;
74177;SDS011;62540;48.456;-4.456;2022-12-07T13:49:16;10.25;;;9.00;;
74177;SDS011;62540;48.456;-4.456;2022-12-07T13:51:43;9.25;;;8.00;;
74177;SDS011;62540;48.456;-4.456;2022-12-07T13:54:09;10.75;;;10.00;;
74177;SDS011;62540;48.456;-4.456;2022-12-07T13:56:37;14.50;;;11.50;;
74177;SDS011;62540;48.456;-4.456;2022-12-07T13:59:14;8.50;;;7.75;;
74177;SDS011;62540;48.456;-4.456;2022-12-07T14:01:43;13.25;;;12.00;;
74177;SDS011;62540;48.456;-4.456;2022-12-07T14:04:19;11.50;;;9.25;;
74177;SDS011;62540;48.456;-4.456;2022-12-07T14:06:55;9.50;;;9.25;;
74177;SDS011;62540;48.456;-4.456;2022-12-07T14:09:22;12.50;;;10.00;;
74177;SDS011;62540;48.456;-4.456;2022-12-07T14:11:50;10.75;;;7.75;;
74177;SDS011;62540;48.456;-4.456;2022-12-07T14:14:22;7.75;;;7.00;;
74177;SDS011;62540;48.456;-4.456;2022-12-07T14:20:00;8.75;;;7.75;;
74177;SDS011;62540;48.456;-4.456;2022-12-07T14:22:34;10.00;;;7.50;;
74177;SDS011;62540;48.456;-4.456;2022-12-07T14:30:28;9.50;;;8.50;;
74177;SDS011;62540;48.456;-4.456;2022-12-07T14:32:59;9.00;;;9.00;;
74177;SDS011;62540;48.456;-4.456;2022-12-07T14:35:26;12.50;;;10.75;;
74177;SDS011;62540;48.456;-4.456;2022-12-07T14:37:51;10.25;;;9.25;;
74177;SDS011;62540;48.456;-4.456;2022-12-07T14:40:18;9.75;;;7.25;;
74177;SDS011;62540;48.456;-4.456;2022-12-07T14:42:49;12.00;;;9.75;;
74177;SDS011;62540;48.456;-4.456;2022-12-07T14:45:20;11.50;;;8.50;;
74177;SDS011;62540;48.456;-4.456;2022-12-07T14:47:47;11.00;;;8.25;;
74177;SDS011;62540;48.456;-4.456;2022-12-07T14:50:17;11.50;;;9.00;;
74177;SDS011;62540;48.456;-4.456;2022-12-07T14:52:47;9.50;;;9.00;;
74177;SDS011;62540;48.456;-4.456;2022-12-07T14:55:29;13.25;;;10.50;;
74177;SDS011;62540;48.456;-4.456;2022-12-07T14:57:55;15.25;;;13.75;;
74177;SDS011;62540;48.456;-4.456;2022-12-07T15:00:22;15.25;;;11.50;;
74177;SDS011;62540;48.456;-4.456;2022-12-07T15:02:49;9.75;;;9.50;;
74177;SDS011;62540;48.456;-4.456;2022-12-07T15:05:16;12.75;;;11.25;;
74177;SDS011;62540;48.456;-4.456;2022-12-07T15:07:42;13.00;;;11.00;;
74177;SDS011;62540;48.456;-4.456;2022-12-07T15:10:21;11.25;;;8.75;;
74177;SDS011;62540;48.456;-4.456;2022-12-07T15:12:48;8.75;;;8.00;;
74177;SDS011;62540;48.456;-4.456;2022-12-07T15:15:14;14.00;;;11.25;;
74177;SDS011;62540;48.456;-4.456;2022-12-07T15:17:40;10.50;;;9.00;;
74177;SDS011;62540;48.456;-4.456;2022-12-07T15:20:07;9.75;;;9.50;;
74177;SDS011;62540;48.456;-4.456;2022-12-07T15:22:36;13.00;;;11.50;;
74177;SDS011;62540;48.456;-4.456;2022-12-07T15:25:02;13.00;;;11.50;;
74177;SDS011;62540;48.456;-4.456;2022-12-07T15:27:29;14.50;;;13.50;;
74177;SDS011;62540;48.456;-4.456;2022-12-07T15:29:55;14.75;;;12.25;;
74177;SDS011;62540;48.456;-4.456;2022-12-07T15:32:21;13.75;;;10.75;;
74177;SDS011;62540;48.456;-4.456;2022-12-07T15:34:47;14.25;;;14.00;;
74177;SDS011;62540;48.456;-4.456;2022-12-07T15:37:13;9.75;;;9.00;;
74177;SDS011;62540;48.456;-4.456;2022-12-07T15:39:38;16.50;;;13.50;;
74177;SDS011;62540;48.456;-4.456;2022-12-07T15:42:04;13.75;;;12.75;;
74177;SDS011;62540;48.456;-4.456;2022-12-07T15:44:29;12.00;;;10.25;;
74177;SDS011;62540;48.456;-4.456;2022-12-07T15:47:13;15.75;;;13.75;;
74177;SDS011;62540;48.456;-4.456;2022-12-07T15:49:38;13.00;;;11.75;;
74177;SDS011;62540;48.456;-4.456;2022-12-07T15:52:04;9.25;;;8.75;;
74177;SDS011;62540;48.456;-4.456;2022-12-07T15:54:29;14.00;;;9.75;;
74177;SDS011;62540;48.456;-4.456;2022-12-07T15:56:57;17.00;;;10.25;;
74177;SDS011;62540;48.456;-4.456;2022-12-07T15:59:22;15.75;;;11.50;;
74177;SDS011;62540;48.456;-4.456;2022-12-07T16:01:48;15.00;;;11.25;;
74177;SDS011;62540;48.456;-4.456;2022-12-07T16:04:13;15.00;;;14.00;;
74177;SDS011;62540;48.456;-4.456;2022-12-07T16:06:39;14.75;;;11.50;;
74177;SDS011;62540;48.456;-4.456;2022-12-07T16:09:05;7.50;;;7.25;;
74177;SDS011;62540;48.456;-4.456;2022-12-07T16:11:31;15.25;;;12.50;;
74177;SDS011;62540;48.456;-4.456;2022-12-07T16:13:56;14.75;;;12.25;;
74177;SDS011;62540;48.456;-4.456;2022-12-07T16:16:22;18.00;;;16.00;;
74177;SDS011;62540;48.456;-4.456;2022-12-07T16:18:48;19.25;;;16.00;;
74177;SDS011;62540;48.456;-4.456;2022-12-07T16:21:15;20.50;;;17.75;;
74177;SDS011;62540;48.456;-4.456;2022-12-07T16:23:42;19.75;;;17.25;;
74177;SDS011;62540;48.456;-4.456;2022-12-07T16:26:10;28.00;;;24.75;;
74177;SDS011;62540;48.456;-4.456;2022-12-07T16:28:37;14.25;;;13.50;;
74177;SDS011;62540;48.456;-4.456;2022-12-07T16:31:03;16.75;;;15.00;;
74177;SDS011;62540;48.456;-4.456;2022-12-07T16:33:31;16.50;;;16.00;;
74177;SDS011;62540;48.456;-4.456;2022-12-07T16:35:58;13.00;;;11.50;;
74177;SDS011;62540;48.456;-4.456;2022-12-07T16:38:24;13.25;;;11.00;;
74177;SDS011;62540;48.456;-4.456;2022-12-07T16:40:50;11.50;;;10.00;;
74177;SDS011;62540;48.456;-4.456;2022-12-07T16:43:15;13.75;;;12.75;;
74177;SDS011;62540;48.456;-4.456;2022-12-07T16:45:41;17.50;;;15.25;;
74177;SDS011;62540;48.456;-4.456;2022-12-07T16:48:06;17.25;;;15.00;;
74177;SDS011;62540;48.456;-4.456;2022-12-07T16:50:31;21.25;;;14.50;;
74177;SDS011;62540;48.456;-4.456;2022-12-07T16:52:57;20.50;;;14.75;;
74177;SDS011;62540;48.456;-4.456;2022-12-07T16:55:22;23.00;;;20.00;;
74177;SDS011;62540;48.456;-4.456;2022-12-07T16:57:48;21.00;;;18.25;;
74177;SDS011;62540;48.456;-4.456;2022-12-07T17:00:13;22.00;;;20.00;;